KACY/ACY METAR and TAF weather

Enter ICAO airport designator
Station Type Date Time Source
KACY METAR 2020/09/25 18:54 UTC NOAA

KACY 251854Z 20004KT 10SM CLR 23/15 A3010 RMK AO2 SLP192 T02280150


Station Type Date Time Source
KACY Decoded METAR 2020/09/25 18:54 UTC NOAA

ATLANTIC CITY INTERNATIONAL, NJ, United States (KACY) 39-28N 74-35W 35M
Sep 25, 2020 - 02:54 PM EDT / 2020.09.25 1854 UTC
Wind: from the SSW (200 degrees) at 5 MPH (4 KT):0
Visibility: 10 mile(s):0
Sky conditions: clear
Temperature: 73.0 F (22.8 C)
Dew Point: 59.0 F (15.0 C)
Relative Humidity: 61%
Pressure (altimeter): 30.1 in. Hg (1019 hPa)
ob: KACY 251854Z 20004KT 10SM CLR 23/15 A3010 RMK AO2 SLP192 T02280150
cycle: 19

Station Type Date Time Source
KACY TAF 2020/09/25 18:42 UTC NOAA

TAF KACY 251738Z 2518/2618 23005KT P6SM SCT250
FM260100 VRB05KT P6SM VCSH BKN100
FM260600 VRB03KT 6SM BR BKN020 PROB30 2609/2613 4SM -SHRA OVC025
FM261600 13005KT P6SM BKN025

Example: see airport list